YMAV

Avalon Airport

Airport
ICAO code
YMAV
IATA Code
AVV
Summary
ICAO Region
APAC
ICAO Territory
Location

, Victoria

Serving
Avalon
Elevation
35 ft
Coordinates
38° 2' 22" S , 144° 28' 10" E
Metar
Observation
YMAV 091930Z AUTO 30001KT 9999 // NCD 06/05 Q1016 RF00.0/000.2
Station
Avalon, Avalon Airport
Date/Time
2022-12-09 19:30:00
Wind direction
300°
Wind speed
01 kts
Lowest cloud amount
no clouds detected
Temperature
6°C
Dew point
5°C
Humidity
93%
QNH
1016 hPa
Weather condition
n/a

Airport map

Aerial View

SKYbrary Partners:

Safety knowledge contributed by: